sensor_id;sensor_type;location;lat;lon;timestamp;P1;durP1;ratioP1;P2;durP2;ratioP2
14486;SDS011;7329;50.866;4.366;2022-08-11T00:01:55;3.10;;;2.90;;
14486;SDS011;7329;50.866;4.366;2022-08-11T00:03:59;3.42;;;3.13;;
14486;SDS011;7329;50.866;4.366;2022-08-11T00:06:04;3.53;;;3.17;;
14486;SDS011;7329;50.866;4.366;2022-08-11T00:08:06;3.92;;;2.90;;
14486;SDS011;7329;50.866;4.366;2022-08-11T00:10:11;2.97;;;2.70;;
14486;SDS011;7329;50.866;4.366;2022-08-11T00:12:15;3.38;;;3.05;;
14486;SDS011;7329;50.866;4.366;2022-08-11T00:14:19;3.25;;;2.92;;
14486;SDS011;7329;50.866;4.366;2022-08-11T00:16:25;3.15;;;2.85;;
14486;SDS011;7329;50.866;4.366;2022-08-11T00:18:28;3.45;;;3.15;;
14486;SDS011;7329;50.866;4.366;2022-08-11T00:20:40;2.88;;;2.63;;
14486;SDS011;7329;50.866;4.366;2022-08-11T00:22:45;3.10;;;2.80;;
14486;SDS011;7329;50.866;4.366;2022-08-11T00:24:49;3.15;;;2.63;;
14486;SDS011;7329;50.866;4.366;2022-08-11T00:26:52;3.20;;;2.90;;
14486;SDS011;7329;50.866;4.366;2022-08-11T00:28:55;3.70;;;2.90;;
14486;SDS011;7329;50.866;4.366;2022-08-11T00:31:09;2.83;;;2.60;;
14486;SDS011;7329;50.866;4.366;2022-08-11T00:33:29;2.70;;;2.42;;
14486;SDS011;7329;50.866;4.366;2022-08-11T00:35:34;3.15;;;2.85;;
14486;SDS011;7329;50.866;4.366;2022-08-11T00:37:36;2.90;;;2.70;;
14486;SDS011;7329;50.866;4.366;2022-08-11T00:39:41;2.83;;;2.63;;
14486;SDS011;7329;50.866;4.366;2022-08-11T00:41:56;3.33;;;3.03;;
14486;SDS011;7329;50.866;4.366;2022-08-11T00:46:37;3.40;;;3.10;;
14486;SDS011;7329;50.866;4.366;2022-08-11T00:48:50;3.10;;;2.67;;
14486;SDS011;7329;50.866;4.366;2022-08-11T00:51:05;3.13;;;2.83;;
14486;SDS011;7329;50.866;4.366;2022-08-11T00:53:36;4.07;;;2.55;;
14486;SDS011;7329;50.866;4.366;2022-08-11T01:01:07;3.25;;;2.70;;
14486;SDS011;7329;50.866;4.366;2022-08-11T01:03:17;3.90;;;2.67;;
14486;SDS011;7329;50.866;4.366;2022-08-11T01:05:43;3.10;;;2.58;;
14486;SDS011;7329;50.866;4.366;2022-08-11T01:08:13;3.92;;;2.75;;
14486;SDS011;7329;50.866;4.366;2022-08-11T01:13:32;3.15;;;2.65;;
14486;SDS011;7329;50.866;4.366;2022-08-11T01:15:57;2.92;;;2.60;;
14486;SDS011;7329;50.866;4.366;2022-08-11T01:23:47;3.45;;;2.55;;
14486;SDS011;7329;50.866;4.366;2022-08-11T01:32:11;2.97;;;2.67;;
14486;SDS011;7329;50.866;4.366;2022-08-11T01:37:59;3.47;;;3.17;;
14486;SDS011;7329;50.866;4.366;2022-08-11T01:46:31;2.83;;;2.42;;
14486;SDS011;7329;50.866;4.366;2022-08-11T01:48:40;2.35;;;2.15;;
14486;SDS011;7329;50.866;4.366;2022-08-11T01:50:49;3.30;;;2.70;;
14486;SDS011;7329;50.866;4.366;2022-08-11T01:53:08;2.80;;;2.50;;
14486;SDS011;7329;50.866;4.366;2022-08-11T01:55:20;5.03;;;2.80;;
14486;SDS011;7329;50.866;4.366;2022-08-11T01:57:28;3.17;;;2.72;;
14486;SDS011;7329;50.866;4.366;2022-08-11T01:59:38;3.00;;;2.70;;
14486;SDS011;7329;50.866;4.366;2022-08-11T02:01:53;2.55;;;2.35;;
14486;SDS011;7329;50.866;4.366;2022-08-11T02:04:08;2.90;;;2.60;;
14486;SDS011;7329;50.866;4.366;2022-08-11T02:06:21;2.70;;;2.50;;
14486;SDS011;7329;50.866;4.366;2022-08-11T02:08:53;2.58;;;2.38;;
14486;SDS011;7329;50.866;4.366;2022-08-11T02:11:04;3.05;;;2.28;;
14486;SDS011;7329;50.866;4.366;2022-08-11T02:13:35;2.60;;;2.40;;
14486;SDS011;7329;50.866;4.366;2022-08-11T02:15:44;2.90;;;2.58;;
14486;SDS011;7329;50.866;4.366;2022-08-11T02:17:49;3.30;;;2.60;;
14486;SDS011;7329;50.866;4.366;2022-08-11T02:20:01;2.60;;;2.40;;
14486;SDS011;7329;50.866;4.366;2022-08-11T02:22:29;4.18;;;2.45;;
14486;SDS011;7329;50.866;4.366;2022-08-11T02:24:57;3.95;;;2.63;;
14486;SDS011;7329;50.866;4.366;2022-08-11T02:27:04;2.97;;;2.60;;
14486;SDS011;7329;50.866;4.366;2022-08-11T02:29:11;3.85;;;2.50;;
14486;SDS011;7329;50.866;4.366;2022-08-11T02:31:23;2.97;;;2.67;;
14486;SDS011;7329;50.866;4.366;2022-08-11T02:33:49;2.88;;;2.50;;
14486;SDS011;7329;50.866;4.366;2022-08-11T02:36:00;3.20;;;2.38;;
14486;SDS011;7329;50.866;4.366;2022-08-11T02:38:13;3.45;;;2.22;;
14486;SDS011;7329;50.866;4.366;2022-08-11T02:40:23;2.70;;;2.50;;
14486;SDS011;7329;50.866;4.366;2022-08-11T02:42:32;2.83;;;2.53;;
14486;SDS011;7329;50.866;4.366;2022-08-11T02:44:40;2.30;;;1.85;;
14486;SDS011;7329;50.866;4.366;2022-08-11T02:46:54;2.92;;;2.30;;
14486;SDS011;7329;50.866;4.366;2022-08-11T02:49:04;2.65;;;2.33;;
14486;SDS011;7329;50.866;4.366;2022-08-11T02:51:34;2.72;;;2.40;;
14486;SDS011;7329;50.866;4.366;2022-08-11T02:53:44;2.20;;;2.00;;
14486;SDS011;7329;50.866;4.366;2022-08-11T02:55:57;2.72;;;2.35;;
14486;SDS011;7329;50.866;4.366;2022-08-11T02:58:09;3.25;;;2.60;;
14486;SDS011;7329;50.866;4.366;2022-08-11T03:00:15;3.40;;;2.80;;
14486;SDS011;7329;50.866;4.366;2022-08-11T03:02:20;2.60;;;2.38;;
14486;SDS011;7329;50.866;4.366;2022-08-11T03:04:45;2.40;;;2.20;;
14486;SDS011;7329;50.866;4.366;2022-08-11T03:07:00;2.63;;;2.20;;
14486;SDS011;7329;50.866;4.366;2022-08-11T03:09:09;2.55;;;2.35;;
14486;SDS011;7329;50.866;4.366;2022-08-11T03:11:21;2.35;;;2.08;;
14486;SDS011;7329;50.866;4.366;2022-08-11T03:13:53;2.47;;;2.22;;
14486;SDS011;7329;50.866;4.366;2022-08-11T03:16:25;2.58;;;2.38;;
14486;SDS011;7329;50.866;4.366;2022-08-11T03:18:49;3.25;;;2.25;;
14486;SDS011;7329;50.866;4.366;2022-08-11T03:20:58;3.17;;;2.42;;
14486;SDS011;7329;50.866;4.366;2022-08-11T03:23:08;2.28;;;2.00;;
14486;SDS011;7329;50.866;4.366;2022-08-11T03:25:21;3.65;;;2.50;;
14486;SDS011;7329;50.866;4.366;2022-08-11T03:27:35;3.08;;;2.38;;
14486;SDS011;7329;50.866;4.366;2022-08-11T03:29:48;2.70;;;2.50;;
14486;SDS011;7329;50.866;4.366;2022-08-11T03:32:06;3.05;;;2.40;;
14486;SDS011;7329;50.866;4.366;2022-08-11T03:34:20;2.55;;;2.15;;
14486;SDS011;7329;50.866;4.366;2022-08-11T03:36:49;3.00;;;2.53;;
14486;SDS011;7329;50.866;4.366;2022-08-11T03:39:04;3.00;;;2.30;;
14486;SDS011;7329;50.866;4.366;2022-08-11T03:41:19;2.95;;;2.05;;
14486;SDS011;7329;50.866;4.366;2022-08-11T03:43:51;2.80;;;2.60;;
14486;SDS011;7329;50.866;4.366;2022-08-11T03:46:02;4.20;;;2.67;;
14486;SDS011;7329;50.866;4.366;2022-08-11T03:48:12;3.00;;;2.40;;
14486;SDS011;7329;50.866;4.366;2022-08-11T03:50:26;3.63;;;2.40;;
14486;SDS011;7329;50.866;4.366;2022-08-11T03:52:39;4.32;;;2.50;;
14486;SDS011;7329;50.866;4.366;2022-08-11T03:54:51;3.55;;;2.40;;
14486;SDS011;7329;50.866;4.366;2022-08-11T03:57:19;3.50;;;2.30;;
14486;SDS011;7329;50.866;4.366;2022-08-11T04:00:00;4.13;;;2.10;;
14486;SDS011;7329;50.866;4.366;2022-08-11T04:02:18;3.03;;;2.35;;
14486;SDS011;7329;50.866;4.366;2022-08-11T04:07:35;2.63;;;2.28;;
14486;SDS011;7329;50.866;4.366;2022-08-11T04:10:09;2.97;;;2.25;;
14486;SDS011;7329;50.866;4.366;2022-08-11T04:15:28;2.92;;;2.30;;
14486;SDS011;7329;50.866;4.366;2022-08-11T04:18:19;2.65;;;2.20;;
14486;SDS011;7329;50.866;4.366;2022-08-11T04:20:48;2.60;;;2.05;;
14486;SDS011;7329;50.866;4.366;2022-08-11T04:31:09;3.20;;;2.58;;
14486;SDS011;7329;50.866;4.366;2022-08-11T04:33:46;2.72;;;2.03;;
14486;SDS011;7329;50.866;4.366;2022-08-11T04:36:01;2.90;;;2.30;;
14486;SDS011;7329;50.866;4.366;2022-08-11T04:40:48;2.97;;;2.30;;
14486;SDS011;7329;50.866;4.366;2022-08-11T04:43:21;2.47;;;2.28;;
14486;SDS011;7329;50.866;4.366;2022-08-11T04:45:48;2.60;;;2.33;;
14486;SDS011;7329;50.866;4.366;2022-08-11T04:51:21;2.85;;;2.30;;
14486;SDS011;7329;50.866;4.366;2022-08-11T04:54:03;3.20;;;2.33;;
14486;SDS011;7329;50.866;4.366;2022-08-11T04:56:32;2.90;;;2.38;;
14486;SDS011;7329;50.866;4.366;2022-08-11T05:01:51;2.95;;;2.53;;
14486;SDS011;7329;50.866;4.366;2022-08-11T05:04:38;3.35;;;2.38;;
14486;SDS011;7329;50.866;4.366;2022-08-11T05:07:18;3.35;;;2.55;;
14486;SDS011;7329;50.866;4.366;2022-08-11T05:09:58;2.85;;;2.47;;
14486;SDS011;7329;50.866;4.366;2022-08-11T05:12:13;2.40;;;2.20;;
14486;SDS011;7329;50.866;4.366;2022-08-11T05:14:31;2.83;;;2.22;;
14486;SDS011;7329;50.866;4.366;2022-08-11T05:16:56;3.05;;;2.28;;
14486;SDS011;7329;50.866;4.366;2022-08-11T05:19:18;2.60;;;2.15;;
14486;SDS011;7329;50.866;4.366;2022-08-11T05:21:40;3.63;;;2.53;;
14486;SDS011;7329;50.866;4.366;2022-08-11T05:24:07;3.67;;;2.10;;
14486;SDS011;7329;50.866;4.366;2022-08-11T05:26:35;4.10;;;2.30;;
14486;SDS011;7329;50.866;4.366;2022-08-11T05:29:02;2.85;;;2.47;;
14486;SDS011;7329;50.866;4.366;2022-08-11T05:31:42;4.28;;;2.45;;
14486;SDS011;7329;50.866;4.366;2022-08-11T05:34:11;2.97;;;2.35;;
14486;SDS011;7329;50.866;4.366;2022-08-11T05:36:39;3.55;;;2.50;;
14486;SDS011;7329;50.866;4.366;2022-08-11T05:38:53;5.18;;;2.33;;
14486;SDS011;7329;50.866;4.366;2022-08-11T05:41:17;4.05;;;2.50;;
14486;SDS011;7329;50.866;4.366;2022-08-11T05:43:39;4.15;;;2.58;;
14486;SDS011;7329;50.866;4.366;2022-08-11T05:46:03;2.55;;;2.35;;
14486;SDS011;7329;50.866;4.366;2022-08-11T05:48:28;2.55;;;2.35;;
14486;SDS011;7329;50.866;4.366;2022-08-11T05:50:53;5.00;;;2.47;;
14486;SDS011;7329;50.866;4.366;2022-08-11T05:53:16;3.28;;;2.00;;
14486;SDS011;7329;50.866;4.366;2022-08-11T05:55:37;4.80;;;2.65;;
14486;SDS011;7329;50.866;4.366;2022-08-11T05:57:59;4.35;;;2.35;;
14486;SDS011;7329;50.866;4.366;2022-08-11T06:00:04;4.22;;;2.35;;
14486;SDS011;7329;50.866;4.366;2022-08-11T06:02:09;3.85;;;2.33;;
14486;SDS011;7329;50.866;4.366;2022-08-11T06:04:18;5.35;;;2.35;;
14486;SDS011;7329;50.866;4.366;2022-08-11T06:06:23;2.90;;;2.20;;
14486;SDS011;7329;50.866;4.366;2022-08-11T06:08:29;5.22;;;2.60;;
14486;SDS011;7329;50.866;4.366;2022-08-11T06:10:36;4.18;;;2.10;;
14486;SDS011;7329;50.866;4.366;2022-08-11T06:12:42;3.35;;;2.30;;
14486;SDS011;7329;50.866;4.366;2022-08-11T06:14:44;4.20;;;2.40;;
14486;SDS011;7329;50.866;4.366;2022-08-11T06:16:48;3.65;;;2.22;;
14486;SDS011;7329;50.866;4.366;2022-08-11T06:18:55;5.38;;;2.80;;
14486;SDS011;7329;50.866;4.366;2022-08-11T06:20:59;2.85;;;2.42;;
14486;SDS011;7329;50.866;4.366;2022-08-11T06:23:04;4.60;;;2.65;;
14486;SDS011;7329;50.866;4.366;2022-08-11T06:25:09;4.30;;;2.25;;
14486;SDS011;7329;50.866;4.366;2022-08-11T06:27:14;5.47;;;2.17;;
14486;SDS011;7329;50.866;4.366;2022-08-11T06:29:21;4.00;;;2.60;;
14486;SDS011;7329;50.866;4.366;2022-08-11T06:31:25;4.53;;;2.40;;
14486;SDS011;7329;50.866;4.366;2022-08-11T06:33:30;3.58;;;2.50;;
14486;SDS011;7329;50.866;4.366;2022-08-11T06:35:45;4.93;;;2.33;;
14486;SDS011;7329;50.866;4.366;2022-08-11T06:37:55;3.10;;;2.30;;
14486;SDS011;7329;50.866;4.366;2022-08-11T06:40:08;3.45;;;2.53;;
14486;SDS011;7329;50.866;4.366;2022-08-11T06:42:15;5.07;;;2.38;;
14486;SDS011;7329;50.866;4.366;2022-08-11T06:44:32;3.55;;;2.10;;
14486;SDS011;7329;50.866;4.366;2022-08-11T06:46:42;3.60;;;2.60;;
14486;SDS011;7329;50.866;4.366;2022-08-11T06:48:47;4.15;;;2.40;;
14486;SDS011;7329;50.866;4.366;2022-08-11T06:50:50;3.45;;;2.30;;
14486;SDS011;7329;50.866;4.366;2022-08-11T06:53:14;4.68;;;2.55;;
14486;SDS011;7329;50.866;4.366;2022-08-11T06:55:24;3.67;;;2.67;;
14486;SDS011;7329;50.866;4.366;2022-08-11T06:57:44;2.97;;;2.45;;
14486;SDS011;7329;50.866;4.366;2022-08-11T07:00:06;3.63;;;2.33;;
14486;SDS011;7329;50.866;4.366;2022-08-11T07:02:32;3.30;;;2.45;;
14486;SDS011;7329;50.866;4.366;2022-08-11T07:04:43;2.67;;;2.35;;
14486;SDS011;7329;50.866;4.366;2022-08-11T07:06:53;11.02;;;3.40;;
14486;SDS011;7329;50.866;4.366;2022-08-11T07:09:32;8.75;;;3.70;;
14486;SDS011;7329;50.866;4.366;2022-08-11T07:12:37;7.43;;;3.85;;
14486;SDS011;7329;50.866;4.366;2022-08-11T07:14:59;7.05;;;3.47;;
14486;SDS011;7329;50.866;4.366;2022-08-11T07:17:26;9.60;;;3.75;;
14486;SDS011;7329;50.866;4.366;2022-08-11T07:19:31;8.30;;;3.40;;
14486;SDS011;7329;50.866;4.366;2022-08-11T07:21:52;8.07;;;3.70;;
14486;SDS011;7329;50.866;4.366;2022-08-11T07:24:15;8.93;;;3.38;;
14486;SDS011;7329;50.866;4.366;2022-08-11T07:26:36;7.22;;;3.20;;
14486;SDS011;7329;50.866;4.366;2022-08-11T07:29:02;7.15;;;3.70;;
14486;SDS011;7329;50.866;4.366;2022-08-11T07:31:07;8.05;;;3.25;;
14486;SDS011;7329;50.866;4.366;2022-08-11T07:33:13;5.85;;;3.40;;
14486;SDS011;7329;50.866;4.366;2022-08-11T07:35:25;6.45;;;3.40;;
14486;SDS011;7329;50.866;4.366;2022-08-11T07:37:32;5.68;;;3.25;;
14486;SDS011;7329;50.866;4.366;2022-08-11T07:39:35;5.05;;;3.30;;
14486;SDS011;7329;50.866;4.366;2022-08-11T07:41:39;7.07;;;3.40;;
14486;SDS011;7329;50.866;4.366;2022-08-11T07:43:43;7.07;;;3.40;;
14486;SDS011;7329;50.866;4.366;2022-08-11T07:45:52;9.88;;;3.88;;
14486;SDS011;7329;50.866;4.366;2022-08-11T07:50:52;12.50;;;3.80;;
14486;SDS011;7329;50.866;4.366;2022-08-11T07:53:14;5.57;;;3.13;;
14486;SDS011;7329;50.866;4.366;2022-08-11T07:55:18;7.30;;;3.80;;
14486;SDS011;7329;50.866;4.366;2022-08-11T08:00:21;10.57;;;3.53;;
14486;SDS011;7329;50.866;4.366;2022-08-11T08:02:43;6.60;;;3.45;;
14486;SDS011;7329;50.866;4.366;2022-08-11T08:05:04;7.00;;;3.42;;
14486;SDS011;7329;50.866;4.366;2022-08-11T08:07:25;4.90;;;3.22;;
14486;SDS011;7329;50.866;4.366;2022-08-11T08:09:45;7.97;;;2.90;;
14486;SDS011;7329;50.866;4.366;2022-08-11T08:12:07;5.78;;;3.38;;
14486;SDS011;7329;50.866;4.366;2022-08-11T08:14:28;7.85;;;3.35;;
14486;SDS011;7329;50.866;4.366;2022-08-11T08:16:48;6.90;;;3.25;;
14486;SDS011;7329;50.866;4.366;2022-08-11T08:19:11;6.63;;;3.10;;
14486;SDS011;7329;50.866;4.366;2022-08-11T08:21:16;5.13;;;3.20;;
14486;SDS011;7329;50.866;4.366;2022-08-11T08:23:19;7.03;;;3.30;;
14486;SDS011;7329;50.866;4.366;2022-08-11T08:25:32;7.63;;;3.22;;
14486;SDS011;7329;50.866;4.366;2022-08-11T08:27:36;5.32;;;3.33;;
14486;SDS011;7329;50.866;4.366;2022-08-11T08:29:39;5.80;;;3.30;;
14486;SDS011;7329;50.866;4.366;2022-08-11T08:32:01;9.73;;;3.13;;
14486;SDS011;7329;50.866;4.366;2022-08-11T08:34:04;5.47;;;2.90;;
14486;SDS011;7329;50.866;4.366;2022-08-11T08:36:08;4.93;;;3.20;;
14486;SDS011;7329;50.866;4.366;2022-08-11T08:38:11;7.22;;;2.83;;
14486;SDS011;7329;50.866;4.366;2022-08-11T08:40:15;5.82;;;2.92;;
14486;SDS011;7329;50.866;4.366;2022-08-11T08:42:20;4.78;;;3.22;;
14486;SDS011;7329;50.866;4.366;2022-08-11T08:44:25;8.38;;;3.08;;
14486;SDS011;7329;50.866;4.366;2022-08-11T08:46:29;8.25;;;3.13;;
14486;SDS011;7329;50.866;4.366;2022-08-11T08:48:36;10.43;;;3.20;;
14486;SDS011;7329;50.866;4.366;2022-08-11T08:50:42;6.85;;;3.20;;
14486;SDS011;7329;50.866;4.366;2022-08-11T08:53:04;5.60;;;3.38;;
14486;SDS011;7329;50.866;4.366;2022-08-11T08:55:09;6.88;;;3.00;;
14486;SDS011;7329;50.866;4.366;2022-08-11T08:57:17;6.18;;;2.90;;
14486;SDS011;7329;50.866;4.366;2022-08-11T08:59:23;8.02;;;3.15;;
14486;SDS011;7329;50.866;4.366;2022-08-11T09:01:27;4.85;;;2.70;;
14486;SDS011;7329;50.866;4.366;2022-08-11T09:03:34;6.57;;;2.78;;
14486;SDS011;7329;50.866;4.366;2022-08-11T09:05:37;7.55;;;3.10;;
14486;SDS011;7329;50.866;4.366;2022-08-11T09:07:41;4.45;;;2.97;;
14486;SDS011;7329;50.866;4.366;2022-08-11T09:09:49;4.28;;;3.05;;
14486;SDS011;7329;50.866;4.366;2022-08-11T09:11:53;8.27;;;2.97;;
14486;SDS011;7329;50.866;4.366;2022-08-11T09:13:54;6.60;;;3.38;;
14486;SDS011;7329;50.866;4.366;2022-08-11T09:15:57;7.95;;;2.90;;
14486;SDS011;7329;50.866;4.366;2022-08-11T09:18:00;6.10;;;3.08;;
14486;SDS011;7329;50.866;4.366;2022-08-11T09:20:06;6.28;;;2.95;;
14486;SDS011;7329;50.866;4.366;2022-08-11T09:22:10;5.85;;;3.05;;
14486;SDS011;7329;50.866;4.366;2022-08-11T09:24:30;5.90;;;3.40;;
14486;SDS011;7329;50.866;4.366;2022-08-11T09:26:52;3.97;;;2.95;;
14486;SDS011;7329;50.866;4.366;2022-08-11T09:29:00;7.78;;;3.33;;
14486;SDS011;7329;50.866;4.366;2022-08-11T09:31:04;5.28;;;3.20;;
14486;SDS011;7329;50.866;4.366;2022-08-11T09:33:08;7.18;;;2.88;;
14486;SDS011;7329;50.866;4.366;2022-08-11T09:35:12;5.78;;;2.90;;
14486;SDS011;7329;50.866;4.366;2022-08-11T09:37:17;7.97;;;3.47;;
14486;SDS011;7329;50.866;4.366;2022-08-11T09:39:39;7.82;;;3.40;;
14486;SDS011;7329;50.866;4.366;2022-08-11T09:42:02;5.63;;;3.20;;
14486;SDS011;7329;50.866;4.366;2022-08-11T09:44:05;4.43;;;3.22;;
14486;SDS011;7329;50.866;4.366;2022-08-11T09:46:27;6.57;;;3.00;;
14486;SDS011;7329;50.866;4.366;2022-08-11T09:48:31;7.03;;;2.90;;
14486;SDS011;7329;50.866;4.366;2022-08-11T09:50:37;4.97;;;3.00;;
14486;SDS011;7329;50.866;4.366;2022-08-11T09:52:40;5.25;;;2.95;;
14486;SDS011;7329;50.866;4.366;2022-08-11T09:54:47;3.40;;;3.05;;
14486;SDS011;7329;50.866;4.366;2022-08-11T09:56:51;4.63;;;2.85;;
14486;SDS011;7329;50.866;4.366;2022-08-11T09:59:13;7.47;;;3.22;;
14486;SDS011;7329;50.866;4.366;2022-08-11T10:01:15;7.25;;;2.85;;
14486;SDS011;7329;50.866;4.366;2022-08-11T10:03:27;5.15;;;2.88;;
14486;SDS011;7329;50.866;4.366;2022-08-11T10:05:34;6.22;;;3.22;;
14486;SDS011;7329;50.866;4.366;2022-08-11T10:07:55;6.07;;;3.10;;
14486;SDS011;7329;50.866;4.366;2022-08-11T10:10:00;6.45;;;3.00;;
14486;SDS011;7329;50.866;4.366;2022-08-11T10:12:05;4.88;;;3.10;;
14486;SDS011;7329;50.866;4.366;2022-08-11T10:14:12;3.85;;;2.45;;
14486;SDS011;7329;50.866;4.366;2022-08-11T10:16:36;7.75;;;3.40;;
14486;SDS011;7329;50.866;4.366;2022-08-11T10:18:40;6.13;;;3.30;;
14486;SDS011;7329;50.866;4.366;2022-08-11T10:20:49;5.35;;;2.80;;
14486;SDS011;7329;50.866;4.366;2022-08-11T10:22:53;6.70;;;3.15;;
14486;SDS011;7329;50.866;4.366;2022-08-11T10:25:13;4.35;;;2.90;;
14486;SDS011;7329;50.866;4.366;2022-08-11T10:27:34;7.97;;;3.40;;
14486;SDS011;7329;50.866;4.366;2022-08-11T10:29:38;7.70;;;3.63;;
14486;SDS011;7329;50.866;4.366;2022-08-11T10:31:59;3.42;;;3.08;;
14486;SDS011;7329;50.866;4.366;2022-08-11T10:34:21;7.07;;;3.38;;
14486;SDS011;7329;50.866;4.366;2022-08-11T10:36:24;3.33;;;2.70;;
14486;SDS011;7329;50.866;4.366;2022-08-11T10:38:27;4.50;;;2.88;;
14486;SDS011;7329;50.866;4.366;2022-08-11T10:40:31;6.65;;;3.13;;
14486;SDS011;7329;50.866;4.366;2022-08-11T10:42:35;5.72;;;3.22;;
14486;SDS011;7329;50.866;4.366;2022-08-11T10:44:58;4.40;;;2.70;;
14486;SDS011;7329;50.866;4.366;2022-08-11T10:47:02;5.30;;;3.03;;
14486;SDS011;7329;50.866;4.366;2022-08-11T10:49:24;5.05;;;2.65;;
14486;SDS011;7329;50.866;4.366;2022-08-11T10:51:28;7.05;;;3.50;;
14486;SDS011;7329;50.866;4.366;2022-08-11T10:53:51;3.20;;;2.67;;
14486;SDS011;7329;50.866;4.366;2022-08-11T10:56:11;4.95;;;3.20;;
14486;SDS011;7329;50.866;4.366;2022-08-11T10:58:31;6.35;;;3.30;;
14486;SDS011;7329;50.866;4.366;2022-08-11T11:00:48;3.95;;;2.85;;
14486;SDS011;7329;50.866;4.366;2022-08-11T11:02:51;5.93;;;2.63;;
14486;SDS011;7329;50.866;4.366;2022-08-11T11:04:57;4.25;;;3.03;;
14486;SDS011;7329;50.866;4.366;2022-08-11T11:07:03;6.40;;;3.05;;
14486;SDS011;7329;50.866;4.366;2022-08-11T11:09:15;8.35;;;3.42;;
14486;SDS011;7329;50.866;4.366;2022-08-11T11:11:20;5.13;;;3.15;;
14486;SDS011;7329;50.866;4.366;2022-08-11T11:13:44;4.50;;;3.20;;
14486;SDS011;7329;50.866;4.366;2022-08-11T11:16:09;5.30;;;3.10;;
14486;SDS011;7329;50.866;4.366;2022-08-11T11:18:38;6.45;;;2.88;;
14486;SDS011;7329;50.866;4.366;2022-08-11T11:20:44;6.10;;;3.17;;
14486;SDS011;7329;50.866;4.366;2022-08-11T11:22:53;3.70;;;3.20;;
14486;SDS011;7329;50.866;4.366;2022-08-11T11:24:59;7.80;;;2.88;;
14486;SDS011;7329;50.866;4.366;2022-08-11T11:27:09;8.32;;;3.13;;
14486;SDS011;7329;50.866;4.366;2022-08-11T11:29:22;5.00;;;2.95;;
14486;SDS011;7329;50.866;4.366;2022-08-11T11:32:03;4.80;;;2.85;;
14486;SDS011;7329;50.866;4.366;2022-08-11T11:34:21;5.32;;;3.22;;
14486;SDS011;7329;50.866;4.366;2022-08-11T11:36:34;5.03;;;2.85;;
14486;SDS011;7329;50.866;4.366;2022-08-11T11:38:45;5.88;;;2.75;;
14486;SDS011;7329;50.866;4.366;2022-08-11T11:40:48;4.38;;;2.90;;
14486;SDS011;7329;50.866;4.366;2022-08-11T11:43:11;3.60;;;3.08;;
14486;SDS011;7329;50.866;4.366;2022-08-11T11:45:14;3.13;;;2.60;;
14486;SDS011;7329;50.866;4.366;2022-08-11T11:47:19;6.75;;;2.63;;
14486;SDS011;7329;50.866;4.366;2022-08-11T11:49:24;5.43;;;2.83;;
14486;SDS011;7329;50.866;4.366;2022-08-11T11:51:29;7.93;;;3.35;;
14486;SDS011;7329;50.866;4.366;2022-08-11T11:53:32;4.75;;;2.65;;
14486;SDS011;7329;50.866;4.366;2022-08-11T11:55:35;3.58;;;2.72;;
14486;SDS011;7329;50.866;4.366;2022-08-11T11:57:38;3.85;;;3.03;;
14486;SDS011;7329;50.866;4.366;2022-08-11T11:59:58;3.10;;;2.65;;
14486;SDS011;7329;50.866;4.366;2022-08-11T12:02:19;4.57;;;3.08;;
14486;SDS011;7329;50.866;4.366;2022-08-11T12:04:22;6.93;;;3.17;;
14486;SDS011;7329;50.866;4.366;2022-08-11T12:06:25;8.63;;;3.00;;
14486;SDS011;7329;50.866;4.366;2022-08-11T12:08:28;5.40;;;2.60;;
14486;SDS011;7329;50.866;4.366;2022-08-11T12:10:31;3.60;;;2.60;;
14486;SDS011;7329;50.866;4.366;2022-08-11T12:12:33;8.00;;;3.13;;
14486;SDS011;7329;50.866;4.366;2022-08-11T12:14:53;4.43;;;2.83;;
14486;SDS011;7329;50.866;4.366;2022-08-11T12:16:56;7.93;;;2.88;;
14486;SDS011;7329;50.866;4.366;2022-08-11T12:19:00;4.47;;;2.67;;
14486;SDS011;7329;50.866;4.366;2022-08-11T12:21:06;4.90;;;2.47;;
14486;SDS011;7329;50.866;4.366;2022-08-11T12:23:10;3.85;;;2.50;;
14486;SDS011;7329;50.866;4.366;2022-08-11T12:25:31;5.75;;;2.80;;
14486;SDS011;7329;50.866;4.366;2022-08-11T12:27:52;4.22;;;2.70;;
14486;SDS011;7329;50.866;4.366;2022-08-11T12:29:56;3.95;;;2.80;;
14486;SDS011;7329;50.866;4.366;2022-08-11T12:32:05;3.67;;;2.83;;
14486;SDS011;7329;50.866;4.366;2022-08-11T12:34:10;6.30;;;2.65;;
14486;SDS011;7329;50.866;4.366;2022-08-11T12:36:14;2.72;;;2.28;;
14486;SDS011;7329;50.866;4.366;2022-08-11T12:38:16;2.58;;;2.38;;
14486;SDS011;7329;50.866;4.366;2022-08-11T12:40:22;5.13;;;2.50;;
14486;SDS011;7329;50.866;4.366;2022-08-11T12:42:49;5.15;;;2.95;;
14486;SDS011;7329;50.866;4.366;2022-08-11T12:45:10;4.43;;;2.78;;
14486;SDS011;7329;50.866;4.366;2022-08-11T12:47:29;5.07;;;2.58;;
14486;SDS011;7329;50.866;4.366;2022-08-11T12:49:58;5.05;;;2.40;;
14486;SDS011;7329;50.866;4.366;2022-08-11T12:52:20;3.20;;;2.50;;
14486;SDS011;7329;50.866;4.366;2022-08-11T12:54:26;5.68;;;2.78;;
14486;SDS011;7329;50.866;4.366;2022-08-11T12:56:35;7.18;;;2.90;;
14486;SDS011;7329;50.866;4.366;2022-08-11T12:58:57;5.75;;;2.50;;
14486;SDS011;7329;50.866;4.366;2022-08-11T13:01:19;4.75;;;2.38;;
14486;SDS011;7329;50.866;4.366;2022-08-11T13:03:39;5.28;;;2.80;;
14486;SDS011;7329;50.866;4.366;2022-08-11T13:06:02;5.07;;;2.92;;
14486;SDS011;7329;50.866;4.366;2022-08-11T13:08:06;3.72;;;2.40;;
14486;SDS011;7329;50.866;4.366;2022-08-11T13:10:10;5.45;;;2.60;;
14486;SDS011;7329;50.866;4.366;2022-08-11T13:12:15;5.40;;;3.88;;
14486;SDS011;7329;50.866;4.366;2022-08-11T13:14:35;5.55;;;3.95;;
14486;SDS011;7329;50.866;4.366;2022-08-11T13:16:37;7.55;;;3.05;;
14486;SDS011;7329;50.866;4.366;2022-08-11T13:18:54;3.85;;;3.35;;
14486;SDS011;7329;50.866;4.366;2022-08-11T13:20:58;4.97;;;2.20;;
14486;SDS011;7329;50.866;4.366;2022-08-11T13:23:02;3.60;;;2.40;;
14486;SDS011;7329;50.866;4.366;2022-08-11T13:25:06;5.07;;;2.53;;
14486;SDS011;7329;50.866;4.366;2022-08-11T13:27:09;3.58;;;3.10;;
14486;SDS011;7329;50.866;4.366;2022-08-11T13:29:14;4.93;;;3.08;;
14486;SDS011;7329;50.866;4.366;2022-08-11T13:31:21;3.55;;;2.58;;
14486;SDS011;7329;50.866;4.366;2022-08-11T13:33:24;4.32;;;2.47;;
14486;SDS011;7329;50.866;4.366;2022-08-11T13:35:27;6.45;;;2.40;;
14486;SDS011;7329;50.866;4.366;2022-08-11T13:37:31;2.55;;;2.30;;
14486;SDS011;7329;50.866;4.366;2022-08-11T13:39:36;3.03;;;2.35;;
14486;SDS011;7329;50.866;4.366;2022-08-11T13:41:43;3.55;;;2.38;;
14486;SDS011;7329;50.866;4.366;2022-08-11T13:43:49;4.85;;;2.78;;
14486;SDS011;7329;50.866;4.366;2022-08-11T13:45:53;5.95;;;2.67;;
14486;SDS011;7329;50.866;4.366;2022-08-11T13:48:18;2.97;;;2.20;;
14486;SDS011;7329;50.866;4.366;2022-08-11T13:50:20;3.88;;;2.20;;
14486;SDS011;7329;50.866;4.366;2022-08-11T13:52:48;3.42;;;2.20;;
14486;SDS011;7329;50.866;4.366;2022-08-11T13:54:55;3.72;;;2.08;;
14486;SDS011;7329;50.866;4.366;2022-08-11T13:56:59;5.15;;;2.30;;
14486;SDS011;7329;50.866;4.366;2022-08-11T13:59:03;3.95;;;2.30;;
14486;SDS011;7329;50.866;4.366;2022-08-11T14:01:07;3.95;;;2.45;;
14486;SDS011;7329;50.866;4.366;2022-08-11T14:03:11;4.28;;;2.08;;
14486;SDS011;7329;50.866;4.366;2022-08-11T14:05:15;4.45;;;2.60;;
14486;SDS011;7329;50.866;4.366;2022-08-11T14:07:19;2.97;;;2.17;;
14486;SDS011;7329;50.866;4.366;2022-08-11T14:09:24;4.05;;;2.10;;
14486;SDS011;7329;50.866;4.366;2022-08-11T14:11:31;5.63;;;2.47;;
14486;SDS011;7329;50.866;4.366;2022-08-11T14:13:52;2.35;;;2.15;;
14486;SDS011;7329;50.866;4.366;2022-08-11T14:15:59;3.38;;;2.22;;
14486;SDS011;7329;50.866;4.366;2022-08-11T14:18:05;2.50;;;2.10;;
14486;SDS011;7329;50.866;4.366;2022-08-11T14:20:09;5.03;;;2.35;;
14486;SDS011;7329;50.866;4.366;2022-08-11T14:22:17;4.22;;;2.50;;
14486;SDS011;7329;50.866;4.366;2022-08-11T14:24:23;3.40;;;2.33;;
14486;SDS011;7329;50.866;4.366;2022-08-11T14:26:28;5.57;;;2.40;;
14486;SDS011;7329;50.866;4.366;2022-08-11T14:28:39;3.83;;;2.13;;
14486;SDS011;7329;50.866;4.366;2022-08-11T14:30:43;6.10;;;2.53;;
14486;SDS011;7329;50.866;4.366;2022-08-11T14:32:57;5.60;;;2.10;;
14486;SDS011;7329;50.866;4.366;2022-08-11T14:35:00;3.72;;;2.35;;